Time;durP1;ratioP1;P1;durP2;ratioP2;P2;SDS_P1;SDS_P2;PMS_P1;PMS_P2;Temp;Humidity;BMP_temperature;BMP_pressure;BME280_temperature;BME280_humidity;BME280_pressure;Samples;Min_cycle;Max_cycle;Signal;HPM_P1;HPM_P2
2023/12/07 00:01:11;;;;;;;;;;;;;;;2.86;79.77;100252.09;5448939;32;33841;-72
2023/12/07 00:04:23;;;;;;;;;;;;;;;2.77;79.70;100249.59;5433744;32;34263;-74
2023/12/07 00:07:43;;;;;;;;;;;;;;;2.97;79.25;100252.00;5436990;32;34146;-74
2023/12/07 00:10:54;;;;;;;;;;;;;;;2.80;79.51;100254.75;5449186;32;33213;-71
2023/12/07 00:14:08;;;;;;;;;;;;;;;2.54;80.96;100257.59;5436024;32;33885;-75
2023/12/07 00:17:26;;;;;;;;;;;;;;;2.64;80.94;100251.47;5436733;32;34902;-76
2023/12/07 00:20:47;;;;;;;;;;;;;;;2.76;80.93;100265.16;5439460;32;34240;-73
2023/12/07 00:24:01;;;;;;;;;;;;;;;3.15;79.25;100254.37;5447026;32;33864;-73
2023/12/07 00:27:18;;;;;;;;;;;;;;;3.49;77.27;100252.28;5436981;32;34627;-74
2023/12/07 00:30:50;;;;;;;;;;;;;;;3.32;77.33;100255.94;5461807;32;35111;-75
2023/12/07 00:34:11;;;;;;;;;;;;;;;3.44;76.45;100250.59;5449381;32;34939;-75
2023/12/07 00:37:37;;;;;;;;;;;;;;;2.90;78.56;100258.13;5438253;32;34652;-73
2023/12/07 00:41:22;;;;;;;;;;;;;;;2.94;78.75;100252.03;5458700;32;35487;-72
2023/12/07 00:44:47;;;;;;;;;;;;;;;3.33;78.41;100257.66;5352652;32;36285;-74
2023/12/07 00:47:49;;;;;;;;;;;;;;;2.93;79.35;100253.75;5358694;32;34720;-75
2023/12/07 00:50:51;;;;;;;;;;;;;;;3.56;77.16;100254.78;5342629;32;34865;-74
2023/12/07 00:53:53;;;;;;;;;;;;;;;3.49;77.11;100249.66;5353357;32;34916;-73
2023/12/07 00:56:55;;;;;;;;;;;;;;;3.59;77.13;100254.75;5342701;32;35233;-74
2023/12/07 00:59:58;;;;;;;;;;;;;;;3.27;77.08;100258.59;5355163;32;36059;-75
2023/12/07 01:03:00;;;;;;;;;;;;;;;3.39;76.63;100263.66;5355089;32;35039;-74
2023/12/07 01:06:02;;;;;;;;;;;;;;;2.97;77.58;100252.00;5355327;32;35377;-72
2023/12/07 01:09:05;;;;;;;;;;;;;;;2.22;80.63;100244.00;5356482;32;35158;-74
2023/12/07 01:12:07;;;;;;;;;;;;;;;3.10;78.92;100250.13;5358691;32;34962;-71
2023/12/07 01:15:09;;;;;;;;;;;;;;;3.37;77.26;100246.38;5356012;32;34268;-71
2023/12/07 01:18:11;;;;;;;;;;;;;;;3.35;77.36;100250.69;5352219;32;34125;-74
2023/12/07 01:21:14;;;;;;;;;;;;;;;2.96;77.99;100251.16;5373263;32;34848;-75
2023/12/07 01:24:16;;;;;;;;;;;;;;;2.27;79.92;100237.06;5418740;32;34358;-74
2023/12/07 01:27:19;;;;;;;;;;;;;;;2.47;81.29;100248.13;5423390;32;34944;-73
2023/12/07 01:30:21;;;;;;;;;;;;;;;2.95;80.04;100243.34;5410976;32;34934;-71
2023/12/07 01:33:23;;;;;;;;;;;;;;;2.13;80.64;100243.22;5419366;32;35778;-75
2023/12/07 01:36:25;;;;;;;;;;;;;;;2.42;80.62;100226.56;5410723;32;34677;-75
2023/12/07 01:39:28;;;;;;;;;;;;;;;2.42;81.06;100242.12;5405964;32;34824;-72
2023/12/07 01:42:30;;;;;;;;;;;;;;;2.67;80.78;100242.78;5420903;32;34758;-75
2023/12/07 01:45:32;;;;;;;;;;;;;;;2.81;80.00;100238.31;5404376;32;35091;-72
2023/12/07 01:48:34;;;;;;;;;;;;;;;1.83;83.51;100244.25;5406253;32;34649;-74
2023/12/07 01:51:36;;;;;;;;;;;;;;;1.78;85.08;100239.97;5424829;32;34557;-74
2023/12/07 01:54:38;;;;;;;;;;;;;;;2.53;82.46;100229.94;5446283;32;35464;-73
2023/12/07 01:57:41;;;;;;;;;;;;;;;1.92;82.95;100235.56;5447816;32;34813;-72
2023/12/07 02:00:43;;;;;;;;;;;;;;;1.86;85.43;100243.38;5454361;32;34341;-71
2023/12/07 02:03:46;;;;;;;;;;;;;;;2.52;83.13;100246.38;5447327;32;35089;-73
2023/12/07 02:06:48;;;;;;;;;;;;;;;1.52;84.77;100246.16;5463025;32;34210;-72
2023/12/07 02:09:52;;;;;;;;;;;;;;;2.11;83.49;100238.91;5460862;32;34014;-73
2023/12/07 02:12:58;;;;;;;;;;;;;;;2.23;83.79;100238.81;5446817;32;33114;-74
2023/12/07 02:16:08;;;;;;;;;;;;;;;1.89;84.12;100236.44;5443910;32;34148;-75
2023/12/07 02:19:33;;;;;;;;;;;;;;;1.93;84.60;100239.88;5437678;32;35357;-73
2023/12/07 02:22:40;;;;;;;;;;;;;;;2.40;80.62;100228.31;5462643;32;35464;-73
2023/12/07 02:25:47;;;;;;;;;;;;;;;2.02;83.59;100213.91;5457924;32;34900;-74
2023/12/07 02:28:49;;;;;;;;;;;;;;;2.96;80.89;100237.28;5449914;32;34902;-73
2023/12/07 02:31:51;;;;;;;;;;;;;;;1.83;84.67;100246.00;5462784;32;35377;-75
2023/12/07 02:34:54;;;;;;;;;;;;;;;1.43;88.51;100242.75;5464684;32;34857;-72
2023/12/07 02:37:56;;;;;;;;;;;;;;;2.05;85.23;100234.59;5462894;32;35780;-73
2023/12/07 02:40:59;;;;;;;;;;;;;;;2.60;81.95;100226.41;5447870;32;34744;-71
2023/12/07 02:44:01;;;;;;;;;;;;;;;2.16;81.94;100232.81;5467036;32;35946;-73
2023/12/07 02:47:03;;;;;;;;;;;;;;;2.44;83.17;100240.37;5434475;32;35133;-75
2023/12/07 02:50:06;;;;;;;;;;;;;;;1.71;85.42;100246.91;5466665;32;34630;-71
2023/12/07 02:53:08;;;;;;;;;;;;;;;2.52;84.71;100240.31;5458630;32;34939;-71
2023/12/07 02:56:10;;;;;;;;;;;;;;;1.92;83.97;100242.47;5465435;32;34407;-75
2023/12/07 02:59:12;;;;;;;;;;;;;;;2.20;85.92;100243.19;5462811;32;34657;-73
2023/12/07 03:02:15;;;;;;;;;;;;;;;2.14;84.32;100244.06;5448183;32;34885;-72
2023/12/07 03:05:19;;;;;;;;;;;;;;;2.00;84.82;100246.75;5466267;32;35581;-74
2023/12/07 03:08:21;;;;;;;;;;;;;;;1.87;84.60;100245.13;5461233;32;34164;-74
2023/12/07 03:11:24;;;;;;;;;;;;;;;1.69;86.67;100248.66;5466283;32;35558;-75
2023/12/07 03:14:26;;;;;;;;;;;;;;;2.08;85.23;100241.53;5447599;32;35438;-72
2023/12/07 03:17:28;;;;;;;;;;;;;;;1.66;86.07;100253.00;5444146;32;35088;-75
2023/12/07 03:20:30;;;;;;;;;;;;;;;2.46;84.31;100250.75;5456731;32;35204;-72
2023/12/07 03:23:33;;;;;;;;;;;;;;;2.39;84.96;100249.94;5461864;32;35329;-74
2023/12/07 03:26:35;;;;;;;;;;;;;;;1.85;86.90;100257.22;5465632;32;34870;-73
2023/12/07 03:29:37;;;;;;;;;;;;;;;1.89;86.45;100259.78;5447613;32;34667;-75
2023/12/07 03:32:39;;;;;;;;;;;;;;;2.44;85.25;100269.75;5466772;32;34625;-73
2023/12/07 03:35:41;;;;;;;;;;;;;;;2.17;85.24;100257.87;5444663;32;35542;-72
2023/12/07 03:38:43;;;;;;;;;;;;;;;1.71;86.87;100274.56;5466494;32;35360;-72
2023/12/07 03:41:46;;;;;;;;;;;;;;;1.59;87.35;100260.78;5461882;32;35421;-72
2023/12/07 03:44:48;;;;;;;;;;;;;;;2.20;85.58;100264.78;5449442;32;36249;-72
2023/12/07 03:47:50;;;;;;;;;;;;;;;2.53;85.19;100274.03;5466641;32;36818;-75
2023/12/07 03:50:53;;;;;;;;;;;;;;;2.30;84.84;100270.75;5453001;32;35297;-75
2023/12/07 03:53:55;;;;;;;;;;;;;;;2.60;82.37;100274.84;5465287;32;34241;-74
2023/12/07 03:56:57;;;;;;;;;;;;;;;2.09;86.16;100272.62;5461914;32;35028;-74
2023/12/07 03:59:59;;;;;;;;;;;;;;;1.87;84.94;100278.81;5451009;32;34765;-73
2023/12/07 04:03:02;;;;;;;;;;;;;;;2.18;84.19;100272.53;5460036;32;34638;-72
2023/12/07 04:06:11;;;;;;;;;;;;;;;1.95;86.00;100284.81;5446407;32;34937;-74
2023/12/07 04:09:13;;;;;;;;;;;;;;;2.11;85.21;100281.22;5450129;32;34862;-76
2023/12/07 04:12:15;;;;;;;;;;;;;;;2.16;84.60;100281.22;5461890;32;34761;-72
2023/12/07 04:15:18;;;;;;;;;;;;;;;1.97;83.68;100289.97;5464788;32;34611;-72
2023/12/07 04:18:20;;;;;;;;;;;;;;;1.90;86.19;100291.75;5460316;32;34968;-73
2023/12/07 04:21:22;;;;;;;;;;;;;;;2.36;84.54;100281.06;5463310;32;34053;-72
2023/12/07 04:24:25;;;;;;;;;;;;;;;2.23;83.81;100293.25;5446076;32;34789;-72
2023/12/07 04:27:27;;;;;;;;;;;;;;;2.00;85.83;100297.75;5445903;32;34694;-76
2023/12/07 04:30:29;;;;;;;;;;;;;;;2.05;86.92;100301.16;5465255;32;34329;-71
2023/12/07 04:33:31;;;;;;;;;;;;;;;2.12;85.16;100303.69;5462135;32;34993;-72
2023/12/07 04:36:33;;;;;;;;;;;;;;;1.79;84.89;100309.06;5465195;32;34831;-73
2023/12/07 04:39:36;;;;;;;;;;;;;;;2.21;83.90;100296.75;5447449;32;35500;-74
2023/12/07 04:42:38;;;;;;;;;;;;;;;2.48;82.39;100308.66;5448013;32;34124;-72
2023/12/07 04:45:41;;;;;;;;;;;;;;;2.89;82.25;100316.97;5460655;32;35398;-74
2023/12/07 04:48:43;;;;;;;;;;;;;;;2.37;81.79;100309.59;5460559;32;34482;-75
2023/12/07 04:51:46;;;;;;;;;;;;;;;2.50;82.51;100309.50;5464011;32;34751;-75
2023/12/07 04:54:49;;;;;;;;;;;;;;;2.12;84.97;100319.25;5461048;32;34672;-75
2023/12/07 04:57:51;;;;;;;;;;;;;;;2.67;82.14;100324.06;5465704;32;35137;-76
2023/12/07 05:00:53;;;;;;;;;;;;;;;2.06;83.71;100326.19;5460371;32;34847;-75
2023/12/07 05:03:55;;;;;;;;;;;;;;;2.05;83.98;100327.94;5462781;32;35237;-74
2023/12/07 05:06:58;;;;;;;;;;;;;;;2.13;83.84;100323.59;5461879;32;35575;-72
2023/12/07 05:10:00;;;;;;;;;;;;;;;2.71;81.26;100327.53;5445564;32;35160;-69
2023/12/07 05:13:02;;;;;;;;;;;;;;;2.54;82.57;100321.59;5462656;32;34533;-74
2023/12/07 05:16:05;;;;;;;;;;;;;;;2.60;82.03;100319.81;5457899;32;34343;-72
2023/12/07 05:19:07;;;;;;;;;;;;;;;2.12;81.06;100333.94;5445626;32;35250;-72
2023/12/07 05:22:09;;;;;;;;;;;;;;;1.68;83.98;100344.56;5443102;32;34909;-73
2023/12/07 05:25:12;;;;;;;;;;;;;;;2.39;83.39;100346.78;5462213;32;34994;-74
2023/12/07 05:28:14;;;;;;;;;;;;;;;2.33;83.89;100345.94;5464979;32;35478;-72
2023/12/07 05:31:17;;;;;;;;;;;;;;;2.72;80.53;100343.06;5461083;32;34892;-72
2023/12/07 05:34:19;;;;;;;;;;;;;;;2.20;83.75;100352.09;5464769;32;34990;-75
2023/12/07 05:37:51;;;;;;;;;;;;;;;2.53;82.72;100361.38;5460539;32;34243;-73
2023/12/07 05:41:07;;;;;;;;;;;;;;;2.82;81.20;100361.16;5459950;32;35466;-73
2023/12/07 05:44:23;;;;;;;;;;;;;;;2.49;82.33;100368.31;5438951;32;33539;-72
2023/12/07 05:47:40;;;;;;;;;;;;;;;2.77;80.42;100360.31;5460735;32;35363;-75
2023/12/07 05:51:02;;;;;;;;;;;;;;;2.03;83.73;100368.56;5444715;32;35025;-76
2023/12/07 05:54:29;;;;;;;;;;;;;;;2.09;84.49;100370.28;5460700;32;34916;-73
2023/12/07 05:57:55;;;;;;;;;;;;;;;2.96;81.53;100367.97;5461701;32;34547;-75
2023/12/07 06:01:07;;;;;;;;;;;;;;;2.80;80.14;100368.97;5440911;32;35008;-71
2023/12/07 06:04:13;;;;;;;;;;;;;;;2.55;82.79;100381.25;5460458;32;34482;-72
2023/12/07 06:07:15;;;;;;;;;;;;;;;2.13;86.09;100383.22;5464663;32;35161;-74
2023/12/07 06:10:17;;;;;;;;;;;;;;;2.21;83.22;100375.41;5461533;32;34439;-74
2023/12/07 06:13:21;;;;;;;;;;;;;;;1.70;83.46;100379.94;5461003;32;35559;-73
2023/12/07 06:16:23;;;;;;;;;;;;;;;2.16;84.86;100388.38;5451376;32;34749;-75
2023/12/07 06:19:25;;;;;;;;;;;;;;;2.50;83.90;100390.78;5460273;32;34227;-76
2023/12/07 06:22:27;;;;;;;;;;;;;;;2.45;81.74;100395.16;5447525;32;35793;-75
2023/12/07 06:25:29;;;;;;;;;;;;;;;2.77;81.52;100394.06;5460818;32;34812;-76
2023/12/07 06:28:32;;;;;;;;;;;;;;;2.52;82.81;100391.66;5464246;32;34897;-73
2023/12/07 06:31:34;;;;;;;;;;;;;;;2.91;81.80;100397.44;5462518;32;34457;-69
2023/12/07 06:34:39;;;;;;;;;;;;;;;2.85;81.31;100397.50;5463086;32;35324;-70
2023/12/07 06:37:41;;;;;;;;;;;;;;;2.76;82.71;100400.13;5464920;32;34260;-78
2023/12/07 06:40:44;;;;;;;;;;;;;;;2.40;83.03;100407.28;5460657;32;34826;-69
2023/12/07 06:43:46;;;;;;;;;;;;;;;2.85;80.22;100411.34;5463404;32;35071;-76
2023/12/07 06:46:48;;;;;;;;;;;;;;;2.34;83.14;100422.88;5459574;32;35806;-71
2023/12/07 06:49:52;;;;;;;;;;;;;;;3.14;82.21;100420.63;5448374;32;34820;-71
2023/12/07 06:52:54;;;;;;;;;;;;;;;2.61;82.12;100421.88;5448644;32;34425;-72
2023/12/07 06:55:57;;;;;;;;;;;;;;;3.03;81.14;100419.84;5455623;32;37854;-70
2023/12/07 06:58:59;;;;;;;;;;;;;;;2.73;82.78;100426.97;5455519;32;35496;-76
2023/12/07 07:02:01;;;;;;;;;;;;;;;3.13;80.41;100431.88;5457095;32;35837;-73
2023/12/07 07:05:05;;;;;;;;;;;;;;;2.68;81.82;100436.53;5460164;32;34352;-74
2023/12/07 07:08:08;;;;;;;;;;;;;;;3.33;78.98;100434.31;5451536;32;34762;-74
2023/12/07 07:11:14;;;;;;;;;;;;;;;2.83;81.26;100440.75;5442879;32;34237;-76
2023/12/07 07:14:16;;;;;;;;;;;;;;;3.19;80.54;100435.28;5460113;32;33507;-77
2023/12/07 07:17:18;;;;;;;;;;;;;;;2.97;79.90;100436.34;5458224;32;34159;-78
2023/12/07 07:20:20;;;;;;;;;;;;;;;2.21;82.75;100447.16;5456597;32;34679;-73
2023/12/07 07:23:25;;;;;;;;;;;;;;;3.34;79.78;100441.22;5443773;32;35039;-78
2023/12/07 07:26:29;;;;;;;;;;;;;;;3.30;78.48;100434.34;5450538;32;35352;-69
2023/12/07 07:29:33;;;;;;;;;;;;;;;3.16;78.63;100448.31;5462732;32;35215;-80
2023/12/07 07:32:36;;;;;;;;;;;;;;;3.03;79.51;100445.78;5447670;32;35387;-72
2023/12/07 07:35:38;;;;;;;;;;;;;;;2.16;82.77;100454.94;5465671;32;35036;-75
2023/12/07 07:38:40;;;;;;;;;;;;;;;2.41;81.36;100451.38;5444010;32;35614;-69
2023/12/07 07:41:43;;;;;;;;;;;;;;;2.62;81.11;100453.00;5452038;32;34949;-78
2023/12/07 07:44:47;;;;;;;;;;;;;;;2.69;80.93;100452.09;5456753;32;34280;-74
2023/12/07 07:47:51;;;;;;;;;;;;;;;1.94;85.17;100466.28;5462461;32;34337;-70
2023/12/07 07:50:53;;;;;;;;;;;;;;;1.81;84.91;100478.41;5462268;32;35478;-81
2023/12/07 07:53:56;;;;;;;;;;;;;;;2.10;83.52;100473.97;5446175;32;35031;-77
2023/12/07 07:57:00;;;;;;;;;;;;;;;2.48;84.08;100470.38;5450748;32;35263;-72
2023/12/07 08:00:10;;;;;;;;;;;;;;;2.50;82.22;100476.41;5446640;32;34065;-72
2023/12/07 08:03:16;;;;;;;;;;;;;;;2.65;82.32;100478.94;5465084;32;34510;-81
2023/12/07 08:06:21;;;;;;;;;;;;;;;2.38;80.83;100484.25;5448786;32;35261;-71
2023/12/07 08:09:23;;;;;;;;;;;;;;;2.39;82.21;100486.84;5458824;32;34297;-66
2023/12/07 08:12:28;;;;;;;;;;;;;;;2.80;81.81;100482.31;5445236;32;35912;-71
2023/12/07 08:15:30;;;;;;;;;;;;;;;2.78;81.15;100486.66;5457493;32;35523;-71
2023/12/07 08:18:32;;;;;;;;;;;;;;;2.33;82.55;100480.81;5442276;32;34201;-77
2023/12/07 08:21:35;;;;;;;;;;;;;;;2.70;82.17;100481.50;5455130;32;36621;-75
2023/12/07 08:24:39;;;;;;;;;;;;;;;2.63;81.23;100483.25;5463529;32;33879;-69
2023/12/07 08:27:44;;;;;;;;;;;;;;;2.19;82.77;100486.06;5462573;32;34352;-74
2023/12/07 08:30:46;;;;;;;;;;;;;;;2.39;83.33;100491.19;5459239;32;38523;-68
2023/12/07 08:33:48;;;;;;;;;;;;;;;3.18;81.07;100480.31;5436174;32;35298;-71
2023/12/07 08:36:52;;;;;;;;;;;;;;;2.87;80.65;100482.25;5458058;32;34364;-73
2023/12/07 08:39:57;;;;;;;;;;;;;;;2.51;82.26;100485.91;5449034;32;35296;-78
2023/12/07 08:43:02;;;;;;;;;;;;;;;2.79;82.67;100478.00;5444034;32;34324;-70
2023/12/07 08:46:07;;;;;;;;;;;;;;;3.46;80.52;100477.50;5452298;32;35749;-82
2023/12/07 08:49:09;;;;;;;;;;;;;;;3.88;76.75;100471.03;5461992;32;36866;-74
2023/12/07 08:52:21;;;;;;;;;;;;;;;3.19;79.75;100481.19;5463211;32;35914;-71
2023/12/07 08:55:41;;;;;;;;;;;;;;;3.75;77.08;100480.69;5453351;32;35318;-76
2023/12/07 08:58:44;;;;;;;;;;;;;;;3.69;78.63;100485.97;5455329;32;35315;-75
2023/12/07 09:01:49;;;;;;;;;;;;;;;3.66;77.53;100480.78;5465454;32;33348;-69
2023/12/07 09:04:51;;;;;;;;;;;;;;;4.15;76.53;100485.47;5450380;32;34611;-79
2023/12/07 09:07:54;;;;;;;;;;;;;;;4.37;75.74;100493.88;5442676;32;34293;-68
2023/12/07 09:10:56;;;;;;;;;;;;;;;3.98;74.64;100490.00;5466782;32;34331;-78
2023/12/07 09:13:58;;;;;;;;;;;;;;;3.10;77.81;100491.66;5463318;32;35618;-76
2023/12/07 09:17:06;;;;;;;;;;;;;;;3.89;76.42;100484.91;5465832;32;34569;-79
2023/12/07 09:20:24;;;;;;;;;;;;;;;3.21;77.64;100495.00;5456651;32;35280;-78
2023/12/07 09:23:26;;;;;;;;;;;;;;;3.43;79.37;100491.37;5468688;32;34248;-71
2023/12/07 09:26:28;;;;;;;;;;;;;;;4.23;75.35;100493.19;5463923;32;34564;-84
2023/12/07 09:29:32;;;;;;;;;;;;;;;4.12;75.02;100485.50;5465415;32;34591;-77
2023/12/07 09:32:38;;;;;;;;;;;;;;;4.32;74.29;100493.09;5450635;32;34179;-70
2023/12/07 09:35:40;;;;;;;;;;;;;;;4.20;74.74;100485.44;5459615;32;34526;-72
2023/12/07 09:38:45;;;;;;;;;;;;;;;3.89;77.09;100490.09;5467926;32;34293;-82
2023/12/07 09:41:49;;;;;;;;;;;;;;;3.47;77.36;100485.28;5466485;32;34269;-81
2023/12/07 09:44:52;;;;;;;;;;;;;;;4.38;74.85;100486.94;5464469;32;34464;-76
2023/12/07 09:47:55;;;;;;;;;;;;;;;4.21;75.74;100480.22;5461794;32;34230;-71
2023/12/07 09:50:57;;;;;;;;;;;;;;;3.67;76.27;100485.13;5447884;32;34579;-79
2023/12/07 09:54:00;;;;;;;;;;;;;;;4.43;75.55;100480.78;5460788;32;34604;-72
2023/12/07 09:57:02;;;;;;;;;;;;;;;4.94;71.88;100469.69;5449545;32;36249;-85
2023/12/07 10:00:14;;;;;;;;;;;;;;;4.10;76.20;100482.06;5444645;32;34711;-70
2023/12/07 10:03:22;;;;;;;;;;;;;;;2.92;78.24;100495.22;5447839;32;34616;-76
2023/12/07 10:06:26;;;;;;;;;;;;;;;3.52;78.39;100483.50;5456441;32;34280;-71
2023/12/07 10:09:28;;;;;;;;;;;;;;;3.78;76.33;100483.25;5449839;32;35667;-70
2023/12/07 10:12:35;;;;;;;;;;;;;;;3.62;78.23;100484.28;5462031;32;34121;-72
2023/12/07 10:15:37;;;;;;;;;;;;;;;4.01;75.07;100479.56;5462955;32;34993;-71
2023/12/07 10:18:40;;;;;;;;;;;;;;;4.39;74.78;100486.94;5449202;32;36524;-71
2023/12/07 10:21:45;;;;;;;;;;;;;;;5.24;71.79;100471.84;5442206;32;37173;-79
2023/12/07 10:24:48;;;;;;;;;;;;;;;4.61;71.54;100485.78;5462174;32;34452;-72
2023/12/07 10:27:52;;;;;;;;;;;;;;;3.75;75.43;100491.09;5446005;32;34318;-70
2023/12/07 10:30:55;;;;;;;;;;;;;;;3.83;75.90;100487.56;5449803;32;34522;-91
2023/12/07 10:33:58;;;;;;;;;;;;;;;2.97;77.94;100491.72;5445750;32;36293;-72
2023/12/07 10:37:04;;;;;;;;;;;;;;;3.46;76.67;100478.34;5451470;32;34689;-85
2023/12/07 10:40:07;;;;;;;;;;;;;;;4.07;74.53;100484.72;5442207;32;35306;-71
2023/12/07 10:43:21;;;;;;;;;;;;;;;3.97;75.82;100480.47;5462880;32;34358;-85
2023/12/07 10:46:26;;;;;;;;;;;;;;;3.20;77.73;100486.34;5461546;32;35487;-75
2023/12/07 10:49:28;;;;;;;;;;;;;;;3.67;78.77;100485.13;5461880;32;34341;-71
2023/12/07 10:52:37;;;;;;;;;;;;;;;3.48;76.47;100487.03;5465566;32;34320;-74
2023/12/07 10:55:59;;;;;;;;;;;;;;;3.68;77.71;100478.19;5448021;32;34656;-74
2023/12/07 10:59:01;;;;;;;;;;;;;;;3.44;76.80;100485.31;5466527;32;32806;-72
2023/12/07 11:02:04;;;;;;;;;;;;;;;3.41;78.13;100487.91;5450750;32;35930;-71
2023/12/07 11:05:06;;;;;;;;;;;;;;;3.14;80.03;100490.72;5440406;32;34574;-71
2023/12/07 11:08:09;;;;;;;;;;;;;;;3.28;78.54;100501.87;5449589;32;36782;-71
2023/12/07 11:11:16;;;;;;;;;;;;;;;3.50;79.17;100500.84;5450624;32;35434;-75
2023/12/07 11:14:19;;;;;;;;;;;;;;;3.50;78.33;100502.59;5452318;32;34477;-73
2023/12/07 11:17:24;;;;;;;;;;;;;;;3.74;78.20;100485.94;5464403;32;34192;-75
2023/12/07 11:20:35;;;;;;;;;;;;;;;3.85;77.23;100502.25;5464262;32;35536;-74
2023/12/07 11:23:38;;;;;;;;;;;;;;;3.79;78.04;100495.38;5452905;32;34534;-69
2023/12/07 11:26:42;;;;;;;;;;;;;;;3.57;77.11;100499.06;5461597;32;34678;-80
2023/12/07 11:29:45;;;;;;;;;;;;;;;3.23;79.44;100501.94;5466236;32;34217;-65
2023/12/07 11:32:47;;;;;;;;;;;;;;;3.23;80.05;100506.28;5461297;32;34069;-76
2023/12/07 11:36:01;;;;;;;;;;;;;;;4.13;77.60;100502.00;5466426;32;34310;-75
2023/12/07 11:39:12;;;;;;;;;;;;;;;3.55;77.50;100503.41;5462591;32;35384;-76
2023/12/07 11:42:24;;;;;;;;;;;;;;;3.89;77.24;100505.69;5458197;32;35300;-70
2023/12/07 11:45:37;;;;;;;;;;;;;;;3.96;77.08;100500.41;5446494;32;34548;-70
2023/12/07 11:48:39;;;;;;;;;;;;;;;4.01;77.30;100493.44;5460551;32;34303;-71
2023/12/07 11:51:42;;;;;;;;;;;;;;;3.74;76.78;100497.19;5460583;32;34215;-73
2023/12/07 11:54:48;;;;;;;;;;;;;;;3.97;77.94;100503.88;5445103;32;34685;-73
2023/12/07 11:57:50;;;;;;;;;;;;;;;4.13;75.74;100495.06;5442003;32;34785;-75
2023/12/07 12:00:53;;;;;;;;;;;;;;;4.13;76.59;100504.59;5434104;32;35567;-74
2023/12/07 12:03:58;;;;;;;;;;;;;;;4.51;75.24;100504.16;5456418;32;33799;-71
2023/12/07 12:07:02;;;;;;;;;;;;;;;4.06;75.80;100506.41;5459080;32;35665;-69
2023/12/07 12:10:04;;;;;;;;;;;;;;;3.34;78.42;100508.78;5461366;32;34252;-76
2023/12/07 12:13:06;;;;;;;;;;;;;;;3.50;79.14;100511.25;5458453;32;34702;-74
2023/12/07 12:16:08;;;;;;;;;;;;;;;3.46;78.31;100504.34;5459077;32;34171;-73
2023/12/07 12:19:16;;;;;;;;;;;;;;;3.90;77.86;100513.47;5447147;32;34327;-78
2023/12/07 12:22:33;;;;;;;;;;;;;;;3.57;77.02;100508.59;5464708;32;34162;-76
2023/12/07 12:25:38;;;;;;;;;;;;;;;4.19;76.24;100517.53;5448691;32;34483;-71
2023/12/07 12:28:43;;;;;;;;;;;;;;;4.23;75.99;100508.81;5464839;32;34343;-72
2023/12/07 12:31:46;;;;;;;;;;;;;;;4.35;74.79;100525.13;5447198;32;36013;-74
2023/12/07 12:34:51;;;;;;;;;;;;;;;4.21;76.22;100521.84;5461161;32;35299;-75
2023/12/07 12:37:55;;;;;;;;;;;;;;;4.80;73.93;100516.78;5464285;32;34939;-73
2023/12/07 12:40:58;;;;;;;;;;;;;;;4.71;73.89;100519.50;5448746;32;34396;-74
2023/12/07 12:44:03;;;;;;;;;;;;;;;4.45;73.91;100525.03;5461449;32;35496;-72
2023/12/07 12:47:08;;;;;;;;;;;;;;;4.65;73.18;100527.41;5445605;32;33963;-69
2023/12/07 12:50:12;;;;;;;;;;;;;;;4.30;74.95;100526.91;5460758;32;35256;-70
2023/12/07 12:53:14;;;;;;;;;;;;;;;4.85;72.49;100530.59;5459506;32;36118;-71
2023/12/07 12:56:16;;;;;;;;;;;;;;;3.66;76.31;100530.16;5445619;32;35605;-76
2023/12/07 12:59:19;;;;;;;;;;;;;;;3.84;76.51;100536.06;5436835;32;36000;-71
2023/12/07 13:02:21;;;;;;;;;;;;;;;4.01;75.21;100534.19;5460894;32;34046;-72
2023/12/07 13:05:27;;;;;;;;;;;;;;;3.45;80.03;100540.75;5464801;32;36618;-74
2023/12/07 13:08:29;;;;;;;;;;;;;;;3.25;78.52;100546.09;5457992;32;34298;-70
2023/12/07 13:11:33;;;;;;;;;;;;;;;2.49;81.76;100547.31;5459764;32;35756;-72
2023/12/07 13:14:37;;;;;;;;;;;;;;;3.60;79.02;100543.19;5442634;32;34736;-70
2023/12/07 13:17:40;;;;;;;;;;;;;;;3.43;80.92;100545.09;5445957;32;34743;-78
2023/12/07 13:20:42;;;;;;;;;;;;;;;3.58;79.55;100549.31;5464319;32;37155;-70
2023/12/07 13:23:58;;;;;;;;;;;;;;;3.45;81.21;100551.12;5463285;32;34159;-76
2023/12/07 13:27:03;;;;;;;;;;;;;;;3.46;80.99;100555.44;5465171;32;35567;-71
2023/12/07 13:30:09;;;;;;;;;;;;;;;4.01;80.10;100539.38;5461845;32;35844;-69
2023/12/07 13:33:11;;;;;;;;;;;;;;;4.66;76.60;100553.41;5463235;32;36358;-67
2023/12/07 13:36:29;;;;;;;;;;;;;;;4.11;76.80;100558.34;5459486;32;35416;-79
2023/12/07 13:39:34;;;;;;;;;;;;;;;3.75;77.22;100550.91;5459375;32;35393;-72
2023/12/07 13:42:36;;;;;;;;;;;;;;;4.50;74.37;100555.31;5453692;32;34082;-72
2023/12/07 13:45:39;;;;;;;;;;;;;;;3.77;77.28;100562.13;5464271;32;35198;-73
2023/12/07 13:48:51;;;;;;;;;;;;;;;3.44;79.80;100567.59;5461743;32;36291;-72
2023/12/07 13:52:01;;;;;;;;;;;;;;;3.46;79.79;100571.03;5449309;32;35897;-72
2023/12/07 13:55:10;;;;;;;;;;;;;;;2.88;79.76;100579.19;5449919;32;34416;-75
2023/12/07 13:58:14;;;;;;;;;;;;;;;3.84;77.83;100572.47;5466115;32;34779;-82
2023/12/07 14:01:17;;;;;;;;;;;;;;;3.74;76.99;100574.31;5464433;32;34706;-76
2023/12/07 14:04:19;;;;;;;;;;;;;;;3.54;78.54;100569.25;5464355;32;34583;-72
2023/12/07 14:07:30;;;;;;;;;;;;;;;3.62;78.04;100577.88;5463189;32;34260;-80
2023/12/07 14:10:34;;;;;;;;;;;;;;;3.62;78.11;100582.19;5463591;32;34195;-69
2023/12/07 14:13:36;;;;;;;;;;;;;;;3.92;76.75;100581.94;5454339;32;35382;-71
2023/12/07 14:16:41;;;;;;;;;;;;;;;4.21;76.40;100589.47;5462113;32;34220;-74
2023/12/07 14:20:09;;;;;;;;;;;;;;;4.10;76.44;100588.72;5455491;32;36389;-71
2023/12/07 14:23:36;;;;;;;;;;;;;;;3.98;78.66;100588.81;5466482;32;34957;-69
2023/12/07 14:26:53;;;;;;;;;;;;;;;4.33;76.96;100606.72;5465409;32;34441;-71
2023/12/07 14:29:55;;;;;;;;;;;;;;;4.02;77.19;100611.34;5460357;32;33729;-68
2023/12/07 14:32:57;;;;;;;;;;;;;;;4.31;75.67;100614.50;5458401;32;32539;-71
2023/12/07 14:36:00;;;;;;;;;;;;;;;3.84;77.59;100620.16;5457406;32;35084;-75
2023/12/07 14:39:06;;;;;;;;;;;;;;;3.45;79.80;100627.34;5463219;32;35622;-71
2023/12/07 14:42:13;;;;;;;;;;;;;;;3.64;80.24;100637.63;5437899;32;34349;-76
2023/12/07 14:45:16;;;;;;;;;;;;;;;3.78;78.33;100633.19;5464942;32;36414;-71
2023/12/07 14:48:20;;;;;;;;;;;;;;;3.62;79.22;100640.25;5459036;32;34263;-75
2023/12/07 14:51:24;;;;;;;;;;;;;;;4.04;77.44;100632.97;5454491;32;34343;-75
2023/12/07 14:54:41;;;;;;;;;;;;;;;3.57;78.83;100646.34;5458148;32;37861;-70
2023/12/07 14:57:43;;;;;;;;;;;;;;;3.65;78.99;100648.00;5441820;32;35276;-69
2023/12/07 15:00:46;;;;;;;;;;;;;;;3.46;79.07;100654.19;5453445;32;34690;-67
2023/12/07 15:03:48;;;;;;;;;;;;;;;3.46;79.93;100651.59;5442821;32;36017;-77
2023/12/07 15:06:50;;;;;;;;;;;;;;;3.54;79.75;100660.19;5461416;32;35245;-67
2023/12/07 15:09:52;;;;;;;;;;;;;;;3.05;80.67;100663.06;5453565;32;35377;-65
2023/12/07 15:12:54;;;;;;;;;;;;;;;3.40;78.66;100664.63;5458168;32;35465;-72
2023/12/07 15:15:59;;;;;;;;;;;;;;;4.12;76.25;100662.38;5436038;32;35571;-73
2023/12/07 15:19:03;;;;;;;;;;;;;;;3.83;76.93;100672.16;5457541;32;34712;-72
2023/12/07 15:22:05;;;;;;;;;;;;;;;3.63;76.71;100669.69;5465103;32;35501;-73
2023/12/07 15:25:07;;;;;;;;;;;;;;;3.93;76.49;100674.69;5459086;32;34729;-74
2023/12/07 15:28:14;;;;;;;;;;;;;;;3.76;78.26;100679.16;5464862;32;35516;-66
2023/12/07 15:31:18;;;;;;;;;;;;;;;3.48;77.70;100683.66;5464783;32;35214;-72
2023/12/07 15:34:20;;;;;;;;;;;;;;;2.91;79.43;100686.50;5468730;32;34756;-65
2023/12/07 15:37:34;;;;;;;;;;;;;;;3.44;77.66;100687.13;5464811;32;35056;-72
2023/12/07 15:40:36;;;;;;;;;;;;;;;4.29;73.42;100688.28;5464535;32;34828;-66
2023/12/07 15:43:38;;;;;;;;;;;;;;;4.86;71.55;100680.78;5469029;32;35055;-67
2023/12/07 15:46:40;;;;;;;;;;;;;;;4.86;72.04;100685.97;5459993;32;34231;-74
2023/12/07 15:49:42;;;;;;;;;;;;;;;4.49;73.33;100688.09;5453558;32;34813;-72
2023/12/07 15:52:45;;;;;;;;;;;;;;;4.69;72.50;100683.53;5464401;32;34705;-65
2023/12/07 15:55:47;;;;;;;;;;;;;;;5.25;69.87;100684.66;5465093;32;35114;-73
2023/12/07 15:58:49;;;;;;;;;;;;;;;5.07;69.64;100683.12;5467651;32;34785;-66
2023/12/07 16:01:51;;;;;;;;;;;;;;;4.67;70.42;100698.31;5462734;32;35972;-67
2023/12/07 16:04:53;;;;;;;;;;;;;;;4.80;71.71;100701.66;5442483;32;34435;-65